sensor_id;sensor_type;location;lat;lon;timestamp;temperature;humidity
67054;SHT31;53960;51.826;5.850;2024-03-23T00:56:04;8.29;96.57
67054;SHT31;53960;51.826;5.850;2024-03-23T00:58:30;8.30;96.74
67054;SHT31;53960;51.826;5.850;2024-03-23T01:00:55;8.30;96.78
67054;SHT31;53960;51.826;5.850;2024-03-23T01:03:21;8.30;96.80
67054;SHT31;53960;51.826;5.850;2024-03-23T01:05:46;8.23;96.67
67054;SHT31;53960;51.826;5.850;2024-03-23T01:08:12;8.29;95.28
67054;SHT31;53960;51.826;5.850;2024-03-23T01:10:37;8.27;94.94
67054;SHT31;53960;51.826;5.850;2024-03-23T01:13:02;8.27;95.30
67054;SHT31;53960;51.826;5.850;2024-03-23T01:15:28;8.26;95.63
67054;SHT31;53960;51.826;5.850;2024-03-23T01:17:53;8.26;96.16
67054;SHT31;53960;51.826;5.850;2024-03-23T01:20:18;8.27;96.01
67054;SHT31;53960;51.826;5.850;2024-03-23T01:22:44;8.26;94.70
67054;SHT31;53960;51.826;5.850;2024-03-23T01:25:09;8.26;94.96
67054;SHT31;53960;51.826;5.850;2024-03-23T01:27:35;8.29;94.71
67054;SHT31;53960;51.826;5.850;2024-03-23T01:30:00;8.26;94.81
67054;SHT31;53960;51.826;5.850;2024-03-23T01:32:25;8.23;94.38
67054;SHT31;53960;51.826;5.850;2024-03-23T01:34:51;8.25;94.21
67054;SHT31;53960;51.826;5.850;2024-03-23T01:37:16;8.27;94.24
67054;SHT31;53960;51.826;5.850;2024-03-23T01:39:41;8.27;94.21
67054;SHT31;53960;51.826;5.850;2024-03-23T01:42:07;8.27;93.38
67054;SHT31;53960;51.826;5.850;2024-03-23T01:44:32;8.29;93.42
67054;SHT31;53960;51.826;5.850;2024-03-23T01:46:58;8.26;93.72
67054;SHT31;53960;51.826;5.850;2024-03-23T01:49:23;8.22;94.89
67054;SHT31;53960;51.826;5.850;2024-03-23T01:51:49;8.17;94.66
67054;SHT31;53960;51.826;5.850;2024-03-23T01:54:15;8.19;94.16
67054;SHT31;53960;51.826;5.850;2024-03-23T01:56:41;8.20;94.65
67054;SHT31;53960;51.826;5.850;2024-03-23T01:59:07;8.23;93.91
67054;SHT31;53960;51.826;5.850;2024-03-23T02:01:34;8.23;94.04
67054;SHT31;53960;51.826;5.850;2024-03-23T02:04:01;8.14;94.49
67054;SHT31;53960;51.826;5.850;2024-03-23T02:06:27;8.10;94.88
67054;SHT31;53960;51.826;5.850;2024-03-23T02:08:53;8.03;95.46
67054;SHT31;53960;51.826;5.850;2024-03-23T02:11:19;8.07;95.15
67054;SHT31;53960;51.826;5.850;2024-03-23T02:13:45;8.07;94.92
67054;SHT31;53960;51.826;5.850;2024-03-23T02:16:10;8.03;95.64
67054;SHT31;53960;51.826;5.850;2024-03-23T02:18:36;8.07;95.28
67054;SHT31;53960;51.826;5.850;2024-03-23T02:21:01;8.03;95.63
67054;SHT31;53960;51.826;5.850;2024-03-23T02:23:26;8.00;96.01
67054;SHT31;53960;51.826;5.850;2024-03-23T02:25:52;8.05;96.07
67054;SHT31;53960;51.826;5.850;2024-03-23T02:28:20;8.09;96.41
67054;SHT31;53960;51.826;5.850;2024-03-23T02:30:48;8.05;96.22
67054;SHT31;53960;51.826;5.850;2024-03-23T02:33:13;8.03;96.41
67054;SHT31;53960;51.826;5.850;2024-03-23T02:35:39;8.07;96.14
67054;SHT31;53960;51.826;5.850;2024-03-23T02:38:04;8.07;96.44
67054;SHT31;53960;51.826;5.850;2024-03-23T02:40:29;8.13;95.85
67054;SHT31;53960;51.826;5.850;2024-03-23T02:42:55;8.13;95.82
67054;SHT31;53960;51.826;5.850;2024-03-23T02:45:20;8.10;95.87
67054;SHT31;53960;51.826;5.850;2024-03-23T02:47:46;8.22;95.76
67054;SHT31;53960;51.826;5.850;2024-03-23T02:50:11;8.13;95.91
67054;SHT31;53960;51.826;5.850;2024-03-23T02:52:37;8.10;96.06
67054;SHT31;53960;51.826;5.850;2024-03-23T02:55:03;8.13;96.12
67054;SHT31;53960;51.826;5.850;2024-03-23T02:57:28;8.10;96.33
67054;SHT31;53960;51.826;5.850;2024-03-23T02:59:54;8.16;96.19
67054;SHT31;53960;51.826;5.850;2024-03-23T03:02:20;8.09;96.16
67054;SHT31;53960;51.826;5.850;2024-03-23T03:04:45;8.12;96.31
67054;SHT31;53960;51.826;5.850;2024-03-23T03:07:11;8.07;96.43
67054;SHT31;53960;51.826;5.850;2024-03-23T03:09:36;8.09;96.51
67054;SHT31;53960;51.826;5.850;2024-03-23T03:12:04;8.12;96.35
67054;SHT31;53960;51.826;5.850;2024-03-23T03:14:30;8.09;96.33
67054;SHT31;53960;51.826;5.850;2024-03-23T03:16:55;7.96;96.95
67054;SHT31;53960;51.826;5.850;2024-03-23T03:19:21;8.00;97.06
67054;SHT31;53960;51.826;5.850;2024-03-23T03:21:46;8.03;96.84
67054;SHT31;53960;51.826;5.850;2024-03-23T03:24:13;7.97;97.07
67054;SHT31;53960;51.826;5.850;2024-03-23T03:26:38;7.95;97.48
67054;SHT31;53960;51.826;5.850;2024-03-23T03:29:03;7.99;97.56
67054;SHT31;53960;51.826;5.850;2024-03-23T03:31:29;7.96;97.33
67054;SHT31;53960;51.826;5.850;2024-03-23T03:33:55;7.96;97.52
67054;SHT31;53960;51.826;5.850;2024-03-23T03:36:20;7.96;97.40
67054;SHT31;53960;51.826;5.850;2024-03-23T03:38:46;7.99;97.68
67054;SHT31;53960;51.826;5.850;2024-03-23T03:41:11;8.05;97.11
67054;SHT31;53960;51.826;5.850;2024-03-23T03:43:37;8.05;96.30
67054;SHT31;53960;51.826;5.850;2024-03-23T03:46:03;8.05;96.15
67054;SHT31;53960;51.826;5.850;2024-03-23T03:48:28;8.00;96.23
67054;SHT31;53960;51.826;5.850;2024-03-23T03:50:54;8.00;96.07
67054;SHT31;53960;51.826;5.850;2024-03-23T03:53:19;7.99;95.65
67054;SHT31;53960;51.826;5.850;2024-03-23T03:55:45;7.93;95.92
67054;SHT31;53960;51.826;5.850;2024-03-23T03:58:10;7.92;95.81
67054;SHT31;53960;51.826;5.850;2024-03-23T04:00:36;7.88;95.69
67054;SHT31;53960;51.826;5.850;2024-03-23T04:03:02;7.85;96.06
67054;SHT31;53960;51.826;5.850;2024-03-23T04:05:27;7.86;95.54
67054;SHT31;53960;51.826;5.850;2024-03-23T04:07:53;7.81;95.70
67054;SHT31;53960;51.826;5.850;2024-03-23T04:10:19;7.76;95.69
67054;SHT31;53960;51.826;5.850;2024-03-23T04:12:45;7.76;95.94
67054;SHT31;53960;51.826;5.850;2024-03-23T04:15:10;7.74;95.66
67054;SHT31;53960;51.826;5.850;2024-03-23T04:17:36;7.76;95.54
67054;SHT31;53960;51.826;5.850;2024-03-23T04:20:02;7.71;95.34
67054;SHT31;53960;51.826;5.850;2024-03-23T04:22:30;7.69;95.50
67054;SHT31;53960;51.826;5.850;2024-03-23T04:24:56;7.69;95.54
67054;SHT31;53960;51.826;5.850;2024-03-23T04:27:23;7.59;95.73
67054;SHT31;53960;51.826;5.850;2024-03-23T04:29:52;7.54;95.86
67054;SHT31;53960;51.826;5.850;2024-03-23T04:32:18;7.59;95.40
67054;SHT31;53960;51.826;5.850;2024-03-23T04:34:44;7.59;95.30
67054;SHT31;53960;51.826;5.850;2024-03-23T04:37:11;7.50;95.51
67054;SHT31;53960;51.826;5.850;2024-03-23T04:39:37;7.45;95.57
67054;SHT31;53960;51.826;5.850;2024-03-23T04:42:03;7.40;95.62
67054;SHT31;53960;51.826;5.850;2024-03-23T04:44:29;7.45;95.30
67054;SHT31;53960;51.826;5.850;2024-03-23T04:46:54;7.35;95.76
67054;SHT31;53960;51.826;5.850;2024-03-23T04:49:20;7.34;95.89
67054;SHT31;53960;51.826;5.850;2024-03-23T04:51:45;7.27;95.67
67054;SHT31;53960;51.826;5.850;2024-03-23T04:54:12;7.26;95.79
67054;SHT31;53960;51.826;5.850;2024-03-23T04:56:37;7.13;96.42
67054;SHT31;53960;51.826;5.850;2024-03-23T04:59:03;7.08;96.53
67054;SHT31;53960;51.826;5.850;2024-03-23T05:01:30;7.06;96.74
67054;SHT31;53960;51.826;5.850;2024-03-23T05:03:56;7.04;96.42
67054;SHT31;53960;51.826;5.850;2024-03-23T05:06:22;7.01;96.52
67054;SHT31;53960;51.826;5.850;2024-03-23T05:08:48;6.96;96.47
67054;SHT31;53960;51.826;5.850;2024-03-23T05:11:13;7.01;96.39
67054;SHT31;53960;51.826;5.850;2024-03-23T05:13:39;7.03;96.19
67054;SHT31;53960;51.826;5.850;2024-03-23T05:16:05;7.06;96.14
67054;SHT31;53960;51.826;5.850;2024-03-23T05:18:30;7.08;95.74
67054;SHT31;53960;51.826;5.850;2024-03-23T05:20:56;7.10;95.67
67054;SHT31;53960;51.826;5.850;2024-03-23T05:23:23;7.04;95.73
67054;SHT31;53960;51.826;5.850;2024-03-23T05:25:48;7.01;95.75
67054;SHT31;53960;51.826;5.850;2024-03-23T05:28:13;6.99;95.87
67054;SHT31;53960;51.826;5.850;2024-03-23T05:30:39;6.93;95.71
67054;SHT31;53960;51.826;5.850;2024-03-23T05:33:05;6.89;95.66
67054;SHT31;53960;51.826;5.850;2024-03-23T05:35:31;6.85;95.76
67054;SHT31;53960;51.826;5.850;2024-03-23T05:37:57;6.79;95.76
67054;SHT31;53960;51.826;5.850;2024-03-23T05:40:24;6.79;95.84
67054;SHT31;53960;51.826;5.850;2024-03-23T05:42:49;6.72;95.84
67054;SHT31;53960;51.826;5.850;2024-03-23T05:45:18;6.75;95.92
67054;SHT31;53960;51.826;5.850;2024-03-23T05:47:44;6.75;95.90
67054;SHT31;53960;51.826;5.850;2024-03-23T05:50:10;6.75;95.89
67054;SHT31;53960;51.826;5.850;2024-03-23T05:52:38;6.82;95.59
67054;SHT31;53960;51.826;5.850;2024-03-23T05:55:04;6.86;95.39
67054;SHT31;53960;51.826;5.850;2024-03-23T05:57:29;6.87;95.27
67054;SHT31;53960;51.826;5.850;2024-03-23T05:59:55;7.00;94.70
67054;SHT31;53960;51.826;5.850;2024-03-23T06:02:20;6.95;94.92
67054;SHT31;53960;51.826;5.850;2024-03-23T06:04:46;6.96;95.11
67054;SHT31;53960;51.826;5.850;2024-03-23T06:07:11;6.96;94.96
67054;SHT31;53960;51.826;5.850;2024-03-23T06:09:39;6.95;95.43
67054;SHT31;53960;51.826;5.850;2024-03-23T06:12:05;6.95;95.17
67054;SHT31;53960;51.826;5.850;2024-03-23T06:14:31;7.00;94.94
67054;SHT31;53960;51.826;5.850;2024-03-23T06:16:58;7.01;94.43
67054;SHT31;53960;51.826;5.850;2024-03-23T06:19:24;6.96;94.98
67054;SHT31;53960;51.826;5.850;2024-03-23T06:21:52;7.06;94.16
67054;SHT31;53960;51.826;5.850;2024-03-23T06:24:18;7.01;94.20
67054;SHT31;53960;51.826;5.850;2024-03-23T06:26:43;6.95;95.04
67054;SHT31;53960;51.826;5.850;2024-03-23T06:29:08;6.96;95.08
67054;SHT31;53960;51.826;5.850;2024-03-23T06:31:34;7.07;94.47
67054;SHT31;53960;51.826;5.850;2024-03-23T06:33:59;7.16;94.22
67054;SHT31;53960;51.826;5.850;2024-03-23T06:36:26;7.24;94.21
67054;SHT31;53960;51.826;5.850;2024-03-23T06:38:52;7.35;93.78
67054;SHT31;53960;51.826;5.850;2024-03-23T06:41:18;7.35;93.99
67054;SHT31;53960;51.826;5.850;2024-03-23T06:43:44;7.44;93.64
67054;SHT31;53960;51.826;5.850;2024-03-23T06:46:09;7.43;93.91
67054;SHT31;53960;51.826;5.850;2024-03-23T06:48:34;7.34;93.21
67054;SHT31;53960;51.826;5.850;2024-03-23T06:51:00;7.38;92.90
67054;SHT31;53960;51.826;5.850;2024-03-23T06:53:25;7.35;93.40
67054;SHT31;53960;51.826;5.850;2024-03-23T06:55:52;7.45;92.77
67054;SHT31;53960;51.826;5.850;2024-03-23T06:58:22;7.41;92.87
67054;SHT31;53960;51.826;5.850;2024-03-23T07:00:48;7.55;93.02
67054;SHT31;53960;51.826;5.850;2024-03-23T07:03:13;7.78;92.35
67054;SHT31;53960;51.826;5.850;2024-03-23T07:05:39;7.85;92.27
67054;SHT31;53960;51.826;5.850;2024-03-23T07:08:05;7.88;92.47
67054;SHT31;53960;51.826;5.850;2024-03-23T07:10:30;7.88;92.57
67054;SHT31;53960;51.826;5.850;2024-03-23T07:12:55;7.89;92.52
67054;SHT31;53960;51.826;5.850;2024-03-23T07:15:21;7.88;91.88
67054;SHT31;53960;51.826;5.850;2024-03-23T07:17:47;7.83;91.87
67054;SHT31;53960;51.826;5.850;2024-03-23T07:20:13;7.86;91.67
67054;SHT31;53960;51.826;5.850;2024-03-23T07:22:38;7.75;91.08
67054;SHT31;53960;51.826;5.850;2024-03-23T07:25:05;7.76;91.61
67054;SHT31;53960;51.826;5.850;2024-03-23T07:27:30;7.74;91.60
67054;SHT31;53960;51.826;5.850;2024-03-23T07:29:56;7.74;91.59
67054;SHT31;53960;51.826;5.850;2024-03-23T07:32:21;7.76;91.46
67054;SHT31;53960;51.826;5.850;2024-03-23T07:34:46;7.79;91.64
67054;SHT31;53960;51.826;5.850;2024-03-23T07:37:12;7.82;91.32
67054;SHT31;53960;51.826;5.850;2024-03-23T07:39:39;7.88;91.55
67054;SHT31;53960;51.826;5.850;2024-03-23T07:42:04;7.88;90.81
67054;SHT31;53960;51.826;5.850;2024-03-23T07:44:30;7.89;91.67
67054;SHT31;53960;51.826;5.850;2024-03-23T07:46:55;7.95;91.08
67054;SHT31;53960;51.826;5.850;2024-03-23T07:49:21;8.06;91.29
67054;SHT31;53960;51.826;5.850;2024-03-23T07:51:46;8.00;91.07
67054;SHT31;53960;51.826;5.850;2024-03-23T07:54:12;7.95;91.04
67054;SHT31;53960;51.826;5.850;2024-03-23T07:56:37;7.92;91.49
67054;SHT31;53960;51.826;5.850;2024-03-23T07:59:03;7.93;90.96
67054;SHT31;53960;51.826;5.850;2024-03-23T08:01:28;7.93;91.19
67054;SHT31;53960;51.826;5.850;2024-03-23T08:03:54;8.05;90.30
67054;SHT31;53960;51.826;5.850;2024-03-23T08:06:20;8.06;90.30
67054;SHT31;53960;51.826;5.850;2024-03-23T08:08:49;8.09;90.45
67054;SHT31;53960;51.826;5.850;2024-03-23T08:11:15;8.14;91.02
67054;SHT31;53960;51.826;5.850;2024-03-23T08:13:42;8.25;90.07
67054;SHT31;53960;51.826;5.850;2024-03-23T08:16:07;8.27;89.92
67054;SHT31;53960;51.826;5.850;2024-03-23T08:18:36;8.38;90.01
67054;SHT31;53960;51.826;5.850;2024-03-23T08:21:03;8.53;89.69
67054;SHT31;53960;51.826;5.850;2024-03-23T08:23:36;8.68;89.13
67054;SHT31;53960;51.826;5.850;2024-03-23T08:26:07;8.77;88.71
67054;SHT31;53960;51.826;5.850;2024-03-23T08:28:34;8.86;88.44
67054;SHT31;53960;51.826;5.850;2024-03-23T08:31:18;8.99;88.02
67054;SHT31;53960;51.826;5.850;2024-03-23T08:33:43;9.09;87.16
67054;SHT31;53960;51.826;5.850;2024-03-23T08:36:10;9.08;86.69
67054;SHT31;53960;51.826;5.850;2024-03-23T08:38:40;8.98;86.02
67054;SHT31;53960;51.826;5.850;2024-03-23T08:41:09;8.86;86.31
67054;SHT31;53960;51.826;5.850;2024-03-23T08:43:36;8.82;86.59
67054;SHT31;53960;51.826;5.850;2024-03-23T08:48:31;8.67;85.85
67054;SHT31;53960;51.826;5.850;2024-03-23T08:51:07;8.69;84.35
67054;SHT31;53960;51.826;5.850;2024-03-23T08:53:34;8.57;83.91
67054;SHT31;53960;51.826;5.850;2024-03-23T08:56:00;8.63;84.95
67054;SHT31;53960;51.826;5.850;2024-03-23T08:58:27;8.64;84.39
67054;SHT31;53960;51.826;5.850;2024-03-23T09:00:53;8.63;83.74
67054;SHT31;53960;51.826;5.850;2024-03-23T09:03:24;8.58;83.03
67054;SHT31;53960;51.826;5.850;2024-03-23T09:05:49;8.57;83.60
67054;SHT31;53960;51.826;5.850;2024-03-23T09:08:15;8.53;83.09
67054;SHT31;53960;51.826;5.850;2024-03-23T09:10:41;8.50;84.09
67054;SHT31;53960;51.826;5.850;2024-03-23T09:13:07;8.46;84.74
67054;SHT31;53960;51.826;5.850;2024-03-23T09:15:38;8.44;85.09
67054;SHT31;53960;51.826;5.850;2024-03-23T09:18:10;8.27;85.33
67054;SHT31;53960;51.826;5.850;2024-03-23T09:20:35;8.23;86.31
67054;SHT31;53960;51.826;5.850;2024-03-23T09:23:01;8.13;86.24
67054;SHT31;53960;51.826;5.850;2024-03-23T09:25:26;8.06;86.51
67054;SHT31;53960;51.826;5.850;2024-03-23T09:27:51;8.12;86.70
67054;SHT31;53960;51.826;5.850;2024-03-23T09:30:17;8.22;86.21
67054;SHT31;53960;51.826;5.850;2024-03-23T09:32:43;8.23;84.62
67054;SHT31;53960;51.826;5.850;2024-03-23T09:35:09;8.23;84.71
67054;SHT31;53960;51.826;5.850;2024-03-23T09:37:35;8.27;84.75
67054;SHT31;53960;51.826;5.850;2024-03-23T09:40:01;8.27;85.14
67054;SHT31;53960;51.826;5.850;2024-03-23T09:42:26;8.40;86.57
67054;SHT31;53960;51.826;5.850;2024-03-23T09:44:52;8.43;86.11
67054;SHT31;53960;51.826;5.850;2024-03-23T09:47:17;8.43;86.63
67054;SHT31;53960;51.826;5.850;2024-03-23T09:49:43;8.25;85.18
67054;SHT31;53960;51.826;5.850;2024-03-23T09:52:09;7.83;84.83
67054;SHT31;53960;51.826;5.850;2024-03-23T09:54:34;7.61;86.02
67054;SHT31;53960;51.826;5.850;2024-03-23T09:57:00;7.51;86.97
67054;SHT31;53960;51.826;5.850;2024-03-23T09:59:26;7.45;87.24
67054;SHT31;53960;51.826;5.850;2024-03-23T10:01:52;7.51;87.92
67054;SHT31;53960;51.826;5.850;2024-03-23T10:04:37;7.59;88.51
67054;SHT31;53960;51.826;5.850;2024-03-23T10:07:18;7.76;88.40
67054;SHT31;53960;51.826;5.850;2024-03-23T10:09:43;7.97;87.27
67054;SHT31;53960;51.826;5.850;2024-03-23T10:12:13;8.20;86.23
67054;SHT31;53960;51.826;5.850;2024-03-23T10:14:40;8.38;86.32
67054;SHT31;53960;51.826;5.850;2024-03-23T10:17:12;8.33;86.56
67054;SHT31;53960;51.826;5.850;2024-03-23T10:19:47;8.27;87.29
67054;SHT31;53960;51.826;5.850;2024-03-23T10:22:23;8.29;86.73
67054;SHT31;53960;51.826;5.850;2024-03-23T10:24:49;8.43;86.62
67054;SHT31;53960;51.826;5.850;2024-03-23T10:27:16;8.72;86.58
67054;SHT31;53960;51.826;5.850;2024-03-23T10:29:46;9.02;84.83
67054;SHT31;53960;51.826;5.850;2024-03-23T10:32:12;9.19;85.35
67054;SHT31;53960;51.826;5.850;2024-03-23T10:34:38;9.05;83.41
67054;SHT31;53960;51.826;5.850;2024-03-23T10:37:04;8.91;83.75
67054;SHT31;53960;51.826;5.850;2024-03-23T10:39:37;8.69;85.17
67054;SHT31;53960;51.826;5.850;2024-03-23T10:42:04;8.54;84.21
67054;SHT31;53960;51.826;5.850;2024-03-23T10:44:31;8.51;85.71
67054;SHT31;53960;51.826;5.850;2024-03-23T10:47:06;8.55;86.31
67054;SHT31;53960;51.826;5.850;2024-03-23T10:49:32;8.68;86.35
67054;SHT31;53960;51.826;5.850;2024-03-23T10:51:59;8.61;86.38
67054;SHT31;53960;51.826;5.850;2024-03-23T10:54:25;8.64;84.74
67054;SHT31;53960;51.826;5.850;2024-03-23T10:56:57;8.84;84.05
67054;SHT31;53960;51.826;5.850;2024-03-23T10:59:25;9.11;84.27
67054;SHT31;53960;51.826;5.850;2024-03-23T11:01:58;9.46;83.17
67054;SHT31;53960;51.826;5.850;2024-03-23T11:04:34;9.71;82.34
67054;SHT31;53960;51.826;5.850;2024-03-23T11:07:02;9.90;77.50
67054;SHT31;53960;51.826;5.850;2024-03-23T11:14:47;10.06;76.12
67054;SHT31;53960;51.826;5.850;2024-03-23T11:17:18;10.09;78.17
67054;SHT31;53960;51.826;5.850;2024-03-23T11:19:44;10.11;77.01
67054;SHT31;53960;51.826;5.850;2024-03-23T11:22:09;10.09;76.26
67054;SHT31;53960;51.826;5.850;2024-03-23T11:24:34;10.19;77.85
67054;SHT31;53960;51.826;5.850;2024-03-23T11:27:00;10.21;78.08
67054;SHT31;53960;51.826;5.850;2024-03-23T11:29:29;10.11;76.35
67054;SHT31;53960;51.826;5.850;2024-03-23T11:31:55;9.99;74.10
67054;SHT31;53960;51.826;5.850;2024-03-23T11:34:21;9.80;72.94
67054;SHT31;53960;51.826;5.850;2024-03-23T11:36:47;9.61;73.39
67054;SHT31;53960;51.826;5.850;2024-03-23T11:39:19;9.48;73.27
67054;SHT31;53960;51.826;5.850;2024-03-23T11:41:56;9.44;74.37
67054;SHT31;53960;51.826;5.850;2024-03-23T11:44:25;9.16;78.35
67054;SHT31;53960;51.826;5.850;2024-03-23T11:46:52;8.82;81.97
67054;SHT31;53960;51.826;5.850;2024-03-23T11:49:24;8.71;84.29
67054;SHT31;53960;51.826;5.850;2024-03-23T11:51:52;8.61;83.49
67054;SHT31;53960;51.826;5.850;2024-03-23T11:54:24;8.46;84.21
67054;SHT31;53960;51.826;5.850;2024-03-23T11:57:04;8.17;84.53
67054;SHT31;53960;51.826;5.850;2024-03-23T11:59:40;8.19;85.07
67054;SHT31;53960;51.826;5.850;2024-03-23T12:02:18;8.30;86.36
67054;SHT31;53960;51.826;5.850;2024-03-23T12:04:43;8.40;86.00
67054;SHT31;53960;51.826;5.850;2024-03-23T12:07:13;8.50;85.05
67054;SHT31;53960;51.826;5.850;2024-03-23T12:09:39;8.53;82.42
67054;SHT31;53960;51.826;5.850;2024-03-23T12:14:34;8.48;81.95
67054;SHT31;53960;51.826;5.850;2024-03-23T12:17:12;8.53;83.02
67054;SHT31;53960;51.826;5.850;2024-03-23T12:19:39;8.53;83.99
67054;SHT31;53960;51.826;5.850;2024-03-23T12:22:05;8.79;83.93
67054;SHT31;53960;51.826;5.850;2024-03-23T12:24:32;9.09;82.69
67054;SHT31;53960;51.826;5.850;2024-03-23T12:27:04;9.26;83.14
67054;SHT31;53960;51.826;5.850;2024-03-23T12:29:31;9.25;83.54
67054;SHT31;53960;51.826;5.850;2024-03-23T12:31:59;9.15;82.69
67054;SHT31;53960;51.826;5.850;2024-03-23T12:34:25;9.04;81.48
67054;SHT31;53960;51.826;5.850;2024-03-23T12:36:51;9.26;82.09
67054;SHT31;53960;51.826;5.850;2024-03-23T12:39:16;9.32;80.43
67054;SHT31;53960;51.826;5.850;2024-03-23T12:41:41;9.43;81.17
67054;SHT31;53960;51.826;5.850;2024-03-23T12:44:07;9.23;81.13
67054;SHT31;53960;51.826;5.850;2024-03-23T12:46:34;9.42;80.46
67054;SHT31;53960;51.826;5.850;2024-03-23T12:48:59;9.71;80.09
67054;SHT31;53960;51.826;5.850;2024-03-23T12:51:25;9.85;76.50
67054;SHT31;53960;51.826;5.850;2024-03-23T12:53:50;10.22;77.24
67054;SHT31;53960;51.826;5.850;2024-03-23T12:56:16;10.31;73.36
67054;SHT31;53960;51.826;5.850;2024-03-23T12:58:41;10.49;74.60
67054;SHT31;53960;51.826;5.850;2024-03-23T13:01:07;10.77;76.18
67054;SHT31;53960;51.826;5.850;2024-03-23T13:03:32;10.84;74.04
67054;SHT31;53960;51.826;5.850;2024-03-23T13:05:57;10.62;74.31
67054;SHT31;53960;51.826;5.850;2024-03-23T13:08:23;10.36;73.66
67054;SHT31;53960;51.826;5.850;2024-03-23T13:10:51;10.56;75.34
67054;SHT31;53960;51.826;5.850;2024-03-23T13:13:17;10.63;72.15
67054;SHT31;53960;51.826;5.850;2024-03-23T13:15:42;10.74;72.72
67054;SHT31;53960;51.826;5.850;2024-03-23T13:18:08;10.64;71.12
67054;SHT31;53960;51.826;5.850;2024-03-23T13:20:35;10.43;70.45
67054;SHT31;53960;51.826;5.850;2024-03-23T13:23:01;10.26;70.87
67054;SHT31;53960;51.826;5.850;2024-03-23T13:25:26;10.18;72.38
67054;SHT31;53960;51.826;5.850;2024-03-23T13:27:52;10.08;74.00
67054;SHT31;53960;51.826;5.850;2024-03-23T13:30:17;9.91;77.18
67054;SHT31;53960;51.826;5.850;2024-03-23T13:32:42;9.66;80.10
67054;SHT31;53960;51.826;5.850;2024-03-23T13:35:08;9.67;78.90
67054;SHT31;53960;51.826;5.850;2024-03-23T13:37:33;9.70;79.38
67054;SHT31;53960;51.826;5.850;2024-03-23T13:39:59;9.80;79.21
67054;SHT31;53960;51.826;5.850;2024-03-23T13:42:24;9.64;76.33
67054;SHT31;53960;51.826;5.850;2024-03-23T13:44:51;9.70;76.67
67054;SHT31;53960;51.826;5.850;2024-03-23T13:47:16;9.80;77.32
67054;SHT31;53960;51.826;5.850;2024-03-23T13:49:41;9.81;78.17
67054;SHT31;53960;51.826;5.850;2024-03-23T13:52:07;9.70;78.30
67054;SHT31;53960;51.826;5.850;2024-03-23T13:54:33;9.56;78.69
67054;SHT31;53960;51.826;5.850;2024-03-23T13:56:58;9.46;79.53
67054;SHT31;53960;51.826;5.850;2024-03-23T13:59:24;9.42;80.00
67054;SHT31;53960;51.826;5.850;2024-03-23T14:01:50;9.40;80.99
67054;SHT31;53960;51.826;5.850;2024-03-23T14:04:16;9.57;82.73
67054;SHT31;53960;51.826;5.850;2024-03-23T14:06:42;9.58;83.08
67054;SHT31;53960;51.826;5.850;2024-03-23T14:09:07;9.69;82.53
67054;SHT31;53960;51.826;5.850;2024-03-23T14:11:37;9.73;79.91
67054;SHT31;53960;51.826;5.850;2024-03-23T14:14:03;9.93;75.57
67054;SHT31;53960;51.826;5.850;2024-03-23T14:16:32;10.16;74.51
67054;SHT31;53960;51.826;5.850;2024-03-23T14:18:57;10.29;75.70
67054;SHT31;53960;51.826;5.850;2024-03-23T14:21:23;10.29;74.69
67054;SHT31;53960;51.826;5.850;2024-03-23T14:23:49;10.25;75.62
67054;SHT31;53960;51.826;5.850;2024-03-23T14:26:14;10.21;74.67
67054;SHT31;53960;51.826;5.850;2024-03-23T14:28:40;10.16;73.88
67054;SHT31;53960;51.826;5.850;2024-03-23T14:31:06;10.06;74.82
67054;SHT31;53960;51.826;5.850;2024-03-23T14:33:36;9.87;75.47
67054;SHT31;53960;51.826;5.850;2024-03-23T14:36:03;9.81;76.01
67054;SHT31;53960;51.826;5.850;2024-03-23T14:38:28;9.56;76.12
67054;SHT31;53960;51.826;5.850;2024-03-23T14:40:58;9.54;77.84
67054;SHT31;53960;51.826;5.850;2024-03-23T14:43:23;9.50;79.64
67054;SHT31;53960;51.826;5.850;2024-03-23T14:46:06;9.36;80.70
67054;SHT31;53960;51.826;5.850;2024-03-23T14:48:32;9.29;77.22
67054;SHT31;53960;51.826;5.850;2024-03-23T14:50:59;9.08;75.85
67054;SHT31;53960;51.826;5.850;2024-03-23T14:53:25;8.93;76.89
67054;SHT31;53960;51.826;5.850;2024-03-23T14:55:54;8.95;78.26
67054;SHT31;53960;51.826;5.850;2024-03-23T14:58:20;9.08;78.22
67054;SHT31;53960;51.826;5.850;2024-03-23T15:00:45;9.09;77.42
67054;SHT31;53960;51.826;5.850;2024-03-23T15:03:10;8.96;77.77
67054;SHT31;53960;51.826;5.850;2024-03-23T15:05:36;8.75;78.90
67054;SHT31;53960;51.826;5.850;2024-03-23T15:08:02;8.27;79.58
67054;SHT31;53960;51.826;5.850;2024-03-23T15:10:28;7.83;81.23
67054;SHT31;53960;51.826;5.850;2024-03-23T15:12:53;7.65;82.42
67054;SHT31;53960;51.826;5.850;2024-03-23T15:15:19;7.74;83.60
67054;SHT31;53960;51.826;5.850;2024-03-23T15:17:44;7.78;84.62
67054;SHT31;53960;51.826;5.850;2024-03-23T15:20:10;7.78;85.27
67054;SHT31;53960;51.826;5.850;2024-03-23T15:22:39;7.88;82.84
67054;SHT31;53960;51.826;5.850;2024-03-23T15:25:04;7.74;83.88
67054;SHT31;53960;51.826;5.850;2024-03-23T15:27:29;7.74;83.12
67054;SHT31;53960;51.826;5.850;2024-03-23T15:29:58;7.83;84.00
67054;SHT31;53960;51.826;5.850;2024-03-23T15:32:23;7.86;85.26
67054;SHT31;53960;51.826;5.850;2024-03-23T15:34:49;7.92;85.60
67054;SHT31;53960;51.826;5.850;2024-03-23T15:37:14;7.96;85.84
67054;SHT31;53960;51.826;5.850;2024-03-23T15:39:40;7.95;84.95
67054;SHT31;53960;51.826;5.850;2024-03-23T15:42:07;8.03;84.59
67054;SHT31;53960;51.826;5.850;2024-03-23T15:44:32;8.25;84.90
67054;SHT31;53960;51.826;5.850;2024-03-23T15:46:58;8.34;85.07
67054;SHT31;53960;51.826;5.850;2024-03-23T15:49:23;8.46;85.21
67054;SHT31;53960;51.826;5.850;2024-03-23T15:51:48;8.57;85.02
67054;SHT31;53960;51.826;5.850;2024-03-23T15:54:14;8.65;85.81
67054;SHT31;53960;51.826;5.850;2024-03-23T15:56:39;8.68;83.94
67054;SHT31;53960;51.826;5.850;2024-03-23T15:59:04;8.75;83.96
67054;SHT31;53960;51.826;5.850;2024-03-23T16:01:31;8.72;81.61
67054;SHT31;53960;51.826;5.850;2024-03-23T16:03:58;8.68;80.28
67054;SHT31;53960;51.826;5.850;2024-03-23T16:06:24;8.65;81.33
67054;SHT31;53960;51.826;5.850;2024-03-23T16:08:49;8.58;81.54
67054;SHT31;53960;51.826;5.850;2024-03-23T16:11:15;8.44;81.16
67054;SHT31;53960;51.826;5.850;2024-03-23T16:13:40;8.36;81.83
67054;SHT31;53960;51.826;5.850;2024-03-23T16:16:07;8.30;82.36
67054;SHT31;53960;51.826;5.850;2024-03-23T16:18:33;8.29;83.64
67054;SHT31;53960;51.826;5.850;2024-03-23T16:21:03;8.37;83.05
67054;SHT31;53960;51.826;5.850;2024-03-23T16:23:29;8.40;81.70
67054;SHT31;53960;51.826;5.850;2024-03-23T16:25:56;8.40;80.22
67054;SHT31;53960;51.826;5.850;2024-03-23T16:28:29;8.29;80.70
67054;SHT31;53960;51.826;5.850;2024-03-23T16:31:05;8.14;81.90
67054;SHT31;53960;51.826;5.850;2024-03-23T16:33:35;8.07;81.96
67054;SHT31;53960;51.826;5.850;2024-03-23T16:36:02;8.05;82.47
67054;SHT31;53960;51.826;5.850;2024-03-23T16:38:36;8.03;81.96
67054;SHT31;53960;51.826;5.850;2024-03-23T16:41:03;7.92;81.13
67054;SHT31;53960;51.826;5.850;2024-03-23T16:43:30;7.95;81.38
67054;SHT31;53960;51.826;5.850;2024-03-23T16:46:01;7.88;81.94